This is the latest recevied weather packets stored in our database for station/object AI9F. If no packets are shown the sender has not sent any weather packets the latest 10 day(s).
| Time | Temp. | Humidity | Pressure | Rain* | Wind** | Luminosity | Snow |
|---|---|---|---|---|---|---|---|
| 1777076213 | 19.44° C | 74% | 1008.7 hPa | 0 mm | - | 11 W/m² | - |
| 1777075909 | 20° C | 73% | 1008.7 hPa | 0 mm | - | 12 W/m² | - |
| 1777075604 | 20.56° C | 70% | 1008.9 hPa | 0 mm | - | 15 W/m² | - |
| 1777075301 | 21.11° C | 69% | 1008.7 hPa | 0 mm | - | 18 W/m² | - |
| 1777074997 | 21.67° C | 67% | 1008.6 hPa | 0 mm | - | 22 W/m² | - |
| 1777074693 | 22.22° C | 65% | 1008.7 hPa | 0 mm | - | 30 W/m² | - |
| 1777074387 | 22.22° C | 63% | 1008.7 hPa | 0 mm | - | 35 W/m² | - |
| 1777074086 | 22.22° C | 63% | 1008.6 hPa | 0 mm | - | 55 W/m² | - |
| 1777073781 | 22.78° C | 63% | 1008.6 hPa | 0 mm | - | 65 W/m² | - |
| 1777073477 | 22.22° C | 63% | 1008.7 hPa | 0 mm | - | 80 W/m² | - |
| 1777073172 | 22.22° C | 63% | 1008.6 hPa | 0 mm | - | 70 W/m² | - |
| 1777072869 | 22.22° C | 63% | 1008.7 hPa | 0 mm | - | 92 W/m² | - |
| 1777072569 | 22.22° C | 62% | 1008.6 hPa | 0 mm | - | 63 W/m² | - |
| 1777072268 | 22.22° C | 63% | 1008.5 hPa | 0 mm | - | 122 W/m² | - |
| 1777071963 | 22.22° C | 63% | 1008.5 hPa | 0 mm | - | 120 W/m² | - |
| 1777071659 | 22.78° C | 60% | 1008.4 hPa | 0 mm | - | 56 W/m² | - |
| 1777071355 | 23.33° C | 59% | 1008.4 hPa | 0 mm | - | 142 W/m² | - |
| 1777071050 | 23.33° C | 57% | 1008.4 hPa | 0 mm | - | 173 W/m² | - |
| 1777070747 | 23.33° C | 57% | 1008.4 hPa | 0 mm | - | 190 W/m² | - |
| 1777070444 | 23.89° C | 58% | 1008.4 hPa | 0 mm | - | 203 W/m² | - |
| 1777070143 | 23.33° C | 60% | 1008.5 hPa | 0 mm | - | 221 W/m² | - |
| 1777069838 | 22.78° C | 60% | 1008.3 hPa | 0 mm | - | 245 W/m² | - |
| 1777069537 | 22.78° C | 60% | 1008.4 hPa | 0 mm | - | 262 W/m² | - |
| 1777069234 | 23.33° C | 60% | 1008.3 hPa | 0 mm | - | 279 W/m² | - |
| 1777068930 | 22.78° C | 60% | 1008.5 hPa | 0 mm | - | 296 W/m² | - |
* Rain latest hour (hover to see other rain measurements)
** Current wind speed in m/s (hover to see current wind gust speed)